This is the latest recevied weather packets stored in our database for station/object KO4RJX-10. If no packets are shown the sender has not sent any weather packets the latest 10 day(s).
| Time | Temp. | Humidity | Pressure | Rain* | Wind** | Luminosity | Snow |
|---|---|---|---|---|---|---|---|
| 1777861784 | 8.89° C | 79% | 1010.5 hPa | 0 mm | - | - | - |
| 1777861113 | 8.89° C | 77% | 1010.5 hPa | 0 mm | - | - | - |
| 1777860584 | 8.89° C | 82% | 1010.5 hPa | 0 mm | - | - | - |
| 1777856984 | 11.11° C | 68% | 1009.8 hPa | 0 mm | - | - | - |
| 1777855384 | 12.22° C | 55% | 1009.5 hPa | 0 mm | - | - | - |
| 1777853384 | 14.44° C | 46% | 1009.1 hPa | 0 mm | - | - | - |
| 1777848985 | 18.89° C | 24% | 1009.1 hPa | 0 mm | - | - | - |
| 1777841784 | 19.44° C | 24% | 1009.1 hPa | 0 mm | - | - | - |
| 1777840184 | 18.89° C | 24% | 1009.1 hPa | 0 mm | - | - | - |
| 1777837384 | 18.89° C | 23% | 1009.8 hPa | 0 mm | - | - | - |
| 1777835784 | 18.33° C | 24% | 1010.5 hPa | 0 mm | - | - | - |
| 1777835513 | 18.89° C | 23% | 1010.5 hPa | 0 mm | - | - | - |
| 1777835114 | 18.33° C | 25% | 1010.5 hPa | 0 mm | - | - | - |
| 1777831515 | 17.78° C | 29% | 1010.8 hPa | 0 mm | - | - | - |
| 1777831115 | 17.22° C | 28% | 1011.2 hPa | 0 mm | - | - | - |
| 1777829784 | 17.22° C | 28% | 1011.2 hPa | 0 mm | - | - | - |
| 1777828184 | 16.67° C | 30% | 1011.2 hPa | 0 mm | - | - | - |
| 1777826185 | 16.67° C | 31% | 1011.5 hPa | 0 mm | - | - | - |
| 1777823786 | 15.56° C | 31% | 1012.2 hPa | 0 mm | - | - | - |
| 1777823385 | 15.56° C | 33% | 1012.2 hPa | 0 mm | - | - | - |
| 1777819784 | 13.89° C | 40% | 1012.2 hPa | 0 mm | - | - | - |
| 1777812984 | 11.11° C | 64% | 1012.2 hPa | 0 mm | - | - | - |
| 1777808584 | 7.22° C | 82% | 1011.5 hPa | 0 mm | - | - | - |
| 1777807784 | 6.67° C | 86% | 1011.2 hPa | 0 mm | - | - | - |
| 1777807384 | 6.11° C | 88% | 1011.2 hPa | 0 mm | - | - | - |
* Rain since midnight (hover to see other rain measurements)
** Current wind speed in m/s (hover to see current wind gust speed)